createdAt,value
2017-12-11T00:00:40.696Z,91.80
2017-12-11T00:03:08.416Z,92.10
2017-12-11T00:05:37.935Z,92.00
2017-12-11T00:08:07.474Z,91.80
2017-12-11T00:10:37.428Z,91.50
2017-12-11T00:13:07.241Z,91.50
2017-12-11T00:15:33.566Z,91.40
2017-12-11T00:17:59.866Z,91.10
2017-12-11T00:20:26.401Z,91.20
2017-12-11T00:22:53.402Z,91.20
2017-12-11T00:25:19.780Z,91.10
2017-12-11T00:27:46.087Z,90.70
2017-12-11T00:30:12.440Z,90.70
2017-12-11T00:32:38.727Z,90.40
2017-12-11T00:35:05.066Z,90.30
2017-12-11T00:37:31.377Z,90.20
2017-12-11T00:39:57.682Z,90.50
2017-12-11T00:42:24.041Z,90.20
2017-12-11T00:44:51.100Z,90.30
2017-12-11T00:47:17.429Z,90.00
2017-12-11T00:49:43.823Z,89.80
2017-12-11T00:52:10.129Z,89.40
2017-12-11T00:54:36.477Z,89.60
2017-12-11T00:57:02.775Z,89.60
2017-12-11T00:59:29.056Z,89.50
2017-12-11T01:01:56.115Z,90.00
2017-12-11T01:04:22.466Z,89.40
2017-12-11T01:06:48.792Z,89.20
2017-12-11T01:09:15.116Z,89.40
2017-12-11T01:11:41.403Z,89.60
2017-12-11T01:14:07.686Z,89.30
2017-12-11T01:16:33.963Z,89.50
2017-12-11T01:19:00.305Z,90.10
2017-12-11T01:21:27.363Z,90.90
2017-12-11T01:23:53.675Z,90.50
2017-12-11T01:26:19.975Z,90.50
2017-12-11T01:28:46.995Z,91.20
2017-12-11T01:31:14.046Z,91.20
2017-12-11T01:33:41.091Z,91.10
2017-12-11T01:36:07.369Z,90.60
2017-12-11T01:38:33.662Z,90.90
2017-12-11T01:41:00.037Z,90.80
2017-12-11T01:43:26.382Z,90.70
2017-12-11T01:45:52.691Z,90.70
2017-12-11T01:48:19.051Z,90.50
2017-12-11T01:50:45.363Z,90.50
2017-12-11T01:53:11.659Z,90.90
2017-12-11T01:55:37.974Z,90.60
2017-12-11T01:58:04.242Z,90.60
2017-12-11T02:00:30.538Z,90.90
2017-12-11T02:02:57.578Z,91.20
2017-12-11T02:05:24.594Z,91.00
2017-12-11T02:07:50.908Z,90.70
2017-12-11T02:10:17.230Z,90.70
2017-12-11T02:12:43.533Z,90.90
2017-12-11T02:15:09.829Z,90.70
2017-12-11T02:17:36.149Z,90.50
2017-12-11T02:20:02.468Z,90.40
2017-12-11T02:22:28.784Z,90.60
2017-12-11T02:24:55.120Z,90.60
2017-12-11T02:27:21.423Z,90.50
2017-12-11T02:29:47.743Z,90.30
2017-12-11T02:32:14.084Z,90.60
2017-12-11T02:34:40.480Z,90.30
2017-12-11T02:37:06.802Z,90.10
2017-12-11T02:39:33.138Z,90.00
2017-12-11T02:42:00.191Z,90.50
2017-12-11T02:44:26.501Z,90.00
2017-12-11T02:46:52.856Z,90.00
2017-12-11T02:49:19.173Z,90.40
2017-12-11T02:51:45.490Z,90.10
2017-12-11T02:54:11.815Z,90.10
2017-12-11T02:56:38.099Z,90.20
2017-12-11T02:59:04.398Z,90.00
2017-12-11T03:01:30.743Z,90.20
2017-12-11T03:03:57.019Z,90.30
2017-12-11T03:06:23.332Z,90.30
2017-12-11T03:08:49.651Z,90.20
2017-12-11T03:11:15.935Z,90.20
2017-12-11T03:13:42.242Z,90.20
2017-12-11T03:16:08.548Z,90.50
2017-12-11T03:18:34.835Z,90.50
2017-12-11T03:21:01.166Z,90.60
2017-12-11T03:23:27.475Z,90.80
2017-12-11T03:25:53.775Z,91.10
2017-12-11T03:28:20.064Z,91.30
2017-12-11T03:30:47.141Z,91.70
2017-12-11T03:33:13.459Z,91.40
2017-12-11T03:35:39.771Z,91.80
2017-12-11T03:38:06.102Z,91.40
2017-12-11T03:40:32.367Z,91.70
2017-12-11T03:42:59.423Z,92.50
2017-12-11T03:45:25.747Z,92.20
2017-12-11T03:47:52.759Z,92.80
2017-12-11T03:50:19.034Z,92.20
2017-12-11T03:52:45.355Z,92.30
2017-12-11T03:55:11.676Z,92.40
2017-12-11T03:57:37.972Z,92.60
2017-12-11T04:00:04.304Z,92.80
2017-12-11T04:02:30.617Z,92.60
2017-12-11T04:04:56.897Z,92.90
2017-12-11T04:07:23.210Z,92.90
2017-12-11T04:09:50.224Z,93.20
2017-12-11T04:12:16.507Z,92.70
2017-12-11T04:14:43.544Z,93.20
2017-12-11T04:17:10.560Z,93.60
2017-12-11T04:19:36.823Z,92.80
2017-12-11T04:22:03.136Z,92.70
2017-12-11T04:24:29.406Z,93.20
2017-12-11T04:26:55.666Z,92.90
2017-12-11T04:29:21.951Z,93.30
2017-12-11T04:31:49.035Z,93.90
2017-12-11T04:34:15.300Z,93.50
2017-12-11T04:36:44.689Z,94.20
2017-12-11T04:39:14.617Z,94.20
2017-12-11T04:41:44.150Z,93.80
2017-12-11T04:44:13.771Z,93.80
2017-12-11T04:46:43.371Z,94.00
2017-12-11T04:49:12.838Z,94.80
2017-12-11T04:51:42.417Z,95.00
2017-12-11T04:54:11.877Z,95.10
2017-12-11T04:56:41.285Z,94.60
2017-12-11T04:59:07.580Z,95.00
2017-12-11T05:01:33.951Z,95.00
2017-12-11T05:04:00.975Z,96.00
2017-12-11T05:06:27.289Z,95.70
2017-12-11T05:08:54.381Z,96.20
2017-12-11T05:11:20.667Z,95.90
2017-12-11T05:13:46.938Z,95.70
2017-12-11T05:16:13.251Z,96.30
2017-12-11T05:18:39.544Z,96.10
2017-12-11T05:21:05.873Z,96.30
2017-12-11T05:23:32.186Z,96.10
2017-12-11T05:25:58.512Z,96.20
2017-12-11T05:28:24.849Z,96.50
2017-12-11T05:30:51.182Z,96.30
2017-12-11T05:33:18.249Z,96.70
2017-12-11T05:35:44.568Z,96.40
2017-12-11T05:38:10.891Z,96.40
2017-12-11T05:40:37.190Z,96.50
2017-12-11T05:43:03.484Z,96.30
2017-12-11T05:45:29.803Z,96.60
2017-12-11T05:47:56.086Z,96.60
2017-12-11T05:50:22.378Z,96.40
2017-12-11T05:52:48.692Z,96.70
2017-12-11T05:55:14.970Z,96.50
2017-12-11T05:57:41.229Z,96.60
2017-12-11T06:00:07.568Z,96.80
2017-12-11T06:02:33.864Z,96.90
2017-12-11T06:05:00.168Z,96.90
2017-12-11T06:07:26.531Z,96.80
2017-12-11T06:09:53.567Z,97.40
2017-12-11T06:12:19.857Z,97.00
2017-12-11T06:14:46.163Z,97.00
2017-12-11T06:17:12.443Z,97.10
2017-12-11T06:19:38.735Z,96.90
2017-12-11T06:22:05.055Z,96.80
2017-12-11T06:24:31.334Z,97.10
2017-12-11T06:26:57.630Z,97.00
2017-12-11T06:29:23.936Z,97.20
2017-12-11T06:31:50.259Z,97.20
2017-12-11T06:34:16.563Z,97.40
2017-12-11T06:36:42.872Z,97.20
2017-12-11T06:39:09.164Z,97.20
2017-12-11T06:41:35.434Z,97.20
2017-12-11T06:44:01.736Z,97.30
2017-12-11T06:46:28.001Z,97.30
2017-12-11T06:48:54.360Z,97.20
2017-12-11T06:51:20.657Z,97.30
2017-12-11T06:53:46.946Z,97.20
2017-12-11T06:56:13.246Z,97.30
2017-12-11T06:58:40.300Z,97.80
2017-12-11T07:01:06.813Z,97.30
2017-12-11T07:03:33.096Z,97.40
2017-12-11T07:05:59.409Z,97.30
2017-12-11T07:08:25.716Z,97.40
2017-12-11T07:10:52.390Z,97.10
2017-12-11T07:13:18.709Z,97.70
2017-12-11T07:15:45.260Z,97.50
2017-12-11T07:18:11.549Z,97.60
2017-12-11T07:20:37.860Z,97.60
2017-12-11T07:23:04.137Z,97.50
2017-12-11T07:25:30.408Z,97.60
2017-12-11T07:27:56.714Z,97.70
2017-12-11T07:30:23.012Z,97.50
2017-12-11T07:32:50.031Z,98.00
2017-12-11T07:35:17.126Z,98.00
2017-12-11T07:37:43.454Z,97.80
2017-12-11T07:40:09.742Z,97.80
2017-12-11T07:42:36.064Z,97.70
2017-12-11T07:45:02.347Z,97.90
2017-12-11T07:47:28.606Z,97.80
2017-12-11T07:49:54.926Z,97.80
2017-12-11T07:52:21.213Z,97.80
2017-12-11T07:54:47.513Z,97.90
2017-12-11T07:57:13.804Z,97.70
2017-12-11T07:59:40.827Z,98.10
2017-12-11T08:02:07.123Z,97.80
2017-12-11T08:04:33.412Z,97.70
2017-12-11T08:06:59.675Z,97.70
2017-12-11T08:09:25.952Z,97.60
2017-12-11T08:11:52.265Z,97.70
2017-12-11T08:14:18.528Z,97.90
2017-12-11T08:16:45.560Z,98.30
2017-12-11T08:19:12.597Z,98.30
2017-12-11T08:21:39.618Z,98.20
2017-12-11T08:24:05.900Z,97.60
2017-12-11T08:26:32.203Z,97.90
2017-12-11T08:28:58.520Z,97.80
2017-12-11T08:31:24.820Z,97.90
2017-12-11T08:33:51.119Z,97.80
2017-12-11T08:36:17.460Z,98.20
2017-12-11T08:38:43.827Z,97.80
2017-12-11T08:41:10.932Z,98.50
2017-12-11T08:43:37.228Z,98.30
2017-12-11T08:46:03.507Z,97.90
2017-12-11T08:48:37.312Z,98.30
2017-12-11T08:51:04.129Z,98.20
2017-12-11T08:53:30.415Z,98.20
2017-12-11T08:55:56.732Z,97.90
2017-12-11T08:58:23.103Z,97.90
2017-12-11T09:00:50.311Z,98.10
2017-12-11T09:03:17.398Z,98.20
2017-12-11T09:05:43.692Z,97.70
2017-12-11T09:08:09.990Z,97.90
2017-12-11T09:10:38.701Z,97.90
2017-12-11T09:13:08.207Z,98.10
2017-12-11T09:15:36.956Z,97.60
2017-12-11T09:18:03.932Z,98.00
2017-12-11T09:20:30.981Z,98.40
2017-12-11T09:22:58.983Z,98.10
2017-12-11T09:25:26.862Z,98.00
2017-12-11T09:27:54.220Z,97.90
2017-12-11T09:30:20.568Z,97.90
2017-12-11T09:32:47.816Z,97.90
2017-12-11T09:35:14.095Z,98.10
2017-12-11T09:37:46.363Z,98.00
2017-12-11T09:40:13.806Z,98.40
2017-12-11T09:42:42.771Z,98.10
2017-12-11T09:45:10.783Z,98.30
2017-12-11T09:47:41.673Z,98.00
2017-12-11T09:50:08.007Z,98.00
2017-12-11T09:52:34.305Z,97.90
2017-12-11T09:55:01.697Z,98.10
2017-12-11T09:57:27.995Z,98.40
2017-12-11T09:59:55.016Z,98.70
2017-12-11T10:02:22.533Z,98.10
2017-12-11T10:04:48.947Z,98.20
2017-12-11T10:07:15.254Z,98.10
2017-12-11T10:09:42.815Z,98.10
2017-12-11T10:12:09.100Z,98.10
2017-12-11T10:14:35.394Z,98.30
2017-12-11T10:17:02.486Z,98.70
2017-12-11T10:19:30.034Z,98.30
2017-12-11T10:21:56.586Z,98.30
2017-12-11T10:24:23.643Z,98.80
2017-12-11T10:26:51.995Z,98.90
2017-12-11T10:29:18.984Z,98.60
2017-12-11T10:31:45.343Z,98.30
2017-12-11T10:34:11.648Z,98.30
2017-12-11T10:36:37.935Z,98.20
2017-12-11T10:39:04.293Z,98.50
2017-12-11T10:41:30.620Z,98.40
2017-12-11T10:43:56.901Z,98.40
2017-12-11T10:46:23.969Z,98.90
2017-12-11T10:48:50.262Z,98.50
2017-12-11T10:51:17.287Z,99.10
2017-12-11T10:53:44.327Z,99.60
2017-12-11T10:56:11.351Z,99.10
2017-12-11T10:58:38.379Z,99.10
2017-12-11T11:01:04.698Z,98.80
2017-12-11T11:03:31.797Z,98.70
2017-12-11T11:05:58.064Z,98.70
2017-12-11T11:08:24.393Z,98.90
2017-12-11T11:10:50.673Z,98.90
2017-12-11T11:13:16.954Z,99.20
2017-12-11T11:15:43.253Z,99.00
2017-12-11T11:18:09.536Z,99.10
2017-12-11T11:20:36.558Z,99.50
2017-12-11T11:23:03.640Z,99.20
2017-12-11T11:25:29.956Z,99.20
2017-12-11T11:27:56.224Z,99.30
2017-12-11T11:30:23.266Z,99.80
2017-12-11T11:32:50.352Z,99.70
2017-12-11T11:35:16.643Z,99.50
2017-12-11T11:37:42.961Z,99.60
2017-12-11T11:40:09.238Z,99.50
2017-12-11T11:42:36.259Z,99.90
2017-12-11T11:45:02.613Z,99.70
2017-12-11T11:47:28.904Z,99.80
2017-12-11T11:49:55.928Z,99.90
2017-12-11T11:52:22.963Z,99.90
2017-12-11T11:54:50.039Z,99.90
2017-12-11T11:57:16.359Z,99.90
2017-12-11T11:59:42.720Z,99.70
2017-12-11T12:02:09.108Z,99.80
2017-12-11T12:04:35.398Z,99.80
2017-12-11T12:07:02.007Z,99.90
2017-12-11T12:09:28.331Z,99.90
2017-12-11T12:11:54.623Z,99.80
2017-12-11T12:14:21.706Z,99.90
2017-12-11T12:16:47.997Z,99.70
2017-12-11T12:19:14.282Z,99.70
2017-12-11T12:21:41.340Z,99.70
2017-12-11T12:24:07.615Z,99.70
2017-12-11T12:26:33.944Z,99.70
2017-12-11T12:29:00.314Z,99.60
2017-12-11T12:31:26.631Z,99.50
2017-12-11T12:33:52.941Z,99.50
2017-12-11T12:36:19.272Z,99.40
2017-12-11T12:38:45.567Z,99.30
2017-12-11T12:41:11.869Z,98.90
2017-12-11T12:43:38.192Z,98.70
2017-12-11T12:46:04.495Z,98.50
2017-12-11T12:48:30.778Z,98.40
2017-12-11T12:50:57.071Z,98.30
2017-12-11T12:53:23.358Z,98.00
2017-12-11T12:55:49.642Z,97.60
2017-12-11T12:58:16.684Z,97.70
2017-12-11T13:00:43.763Z,97.50
2017-12-11T13:03:10.068Z,97.70
2017-12-11T13:05:36.386Z,97.60
2017-12-11T13:08:02.680Z,97.70
2017-12-11T13:10:28.957Z,97.70
2017-12-11T13:12:55.259Z,97.80
2017-12-11T13:15:21.547Z,98.10
2017-12-11T13:17:47.855Z,97.80
2017-12-11T13:20:14.163Z,97.60
2017-12-11T13:22:40.443Z,97.50
2017-12-11T13:25:07.476Z,98.00
2017-12-11T13:27:34.516Z,97.90
2017-12-11T13:30:00.804Z,97.50
2017-12-11T13:32:27.091Z,97.40
2017-12-11T13:34:53.664Z,97.30
2017-12-11T13:37:22.826Z,97.40
2017-12-11T13:39:49.103Z,97.00
2017-12-11T13:42:15.949Z,97.00
2017-12-11T13:44:45.384Z,96.80
2017-12-11T13:47:14.475Z,96.90
2017-12-11T13:49:43.888Z,96.60
2017-12-11T13:52:13.273Z,96.60
2017-12-11T13:54:39.598Z,96.30
2017-12-11T13:57:05.908Z,96.00
2017-12-11T13:59:32.200Z,96.10
2017-12-11T14:01:59.230Z,96.40
2017-12-11T14:04:26.288Z,96.20
2017-12-11T14:06:52.570Z,96.00
2017-12-11T14:09:19.600Z,96.80
2017-12-11T14:11:45.895Z,96.10
2017-12-11T14:14:12.204Z,96.10
2017-12-11T14:16:44.181Z,96.00
2017-12-11T14:19:11.050Z,96.00
2017-12-11T14:21:37.747Z,95.80
2017-12-11T14:24:04.427Z,96.00
2017-12-11T14:26:31.124Z,95.60
2017-12-11T14:28:58.238Z,95.80
2017-12-11T14:31:25.072Z,95.60
2017-12-11T14:33:51.727Z,95.40
2017-12-11T14:36:18.007Z,95.10
2017-12-11T14:38:45.064Z,94.80
2017-12-11T14:41:11.385Z,94.50
2017-12-11T14:43:37.699Z,94.10
2017-12-11T14:46:03.975Z,94.00
2017-12-11T14:48:31.099Z,94.30
2017-12-11T14:50:57.550Z,93.60
2017-12-11T14:53:23.814Z,93.50
2017-12-11T14:55:50.120Z,93.30
2017-12-11T14:58:16.404Z,93.10
2017-12-11T15:00:42.697Z,93.40
2017-12-11T15:03:09.749Z,93.00
2017-12-11T15:05:36.043Z,92.70
2017-12-11T15:08:02.337Z,92.50
2017-12-11T15:10:28.642Z,92.40
2017-12-11T15:12:54.972Z,92.00
2017-12-11T15:15:21.272Z,91.70
2017-12-11T15:17:47.611Z,91.40
2017-12-11T15:20:14.668Z,91.50
2017-12-11T15:22:40.968Z,91.30
2017-12-11T15:25:08.077Z,91.20
2017-12-11T15:27:34.382Z,90.90
2017-12-11T15:30:00.691Z,90.70
2017-12-11T15:32:27.027Z,91.10
2017-12-11T15:34:53.327Z,90.60
2017-12-11T15:37:19.668Z,90.60
2017-12-11T15:39:46.000Z,90.70
2017-12-11T15:42:12.303Z,91.10
2017-12-11T15:44:38.615Z,90.90
2017-12-11T15:47:04.969Z,90.80
2017-12-11T15:49:31.263Z,91.30
2017-12-11T15:51:58.331Z,91.40
2017-12-11T15:54:24.650Z,91.20
2017-12-11T15:56:50.941Z,91.50
2017-12-11T15:59:17.236Z,91.10
2017-12-11T16:01:44.349Z,91.60
2017-12-11T16:04:10.624Z,91.10
2017-12-11T16:06:36.941Z,90.80
2017-12-11T16:09:03.289Z,90.90
2017-12-11T16:11:30.333Z,91.50
2017-12-11T16:13:56.645Z,91.20
2017-12-11T16:16:22.964Z,91.50
2017-12-11T16:18:49.240Z,91.30
2017-12-11T16:21:15.566Z,90.80
2017-12-11T16:23:42.701Z,90.80
2017-12-11T16:26:09.784Z,90.30
2017-12-11T16:28:36.110Z,90.00
2017-12-11T16:31:02.408Z,89.50
2017-12-11T16:33:28.713Z,89.40
2017-12-11T16:35:55.051Z,89.50
2017-12-11T16:38:21.373Z,89.00
2017-12-11T16:40:47.692Z,88.30
2017-12-11T16:43:14.007Z,88.90
2017-12-11T16:45:40.360Z,88.80
2017-12-11T16:48:06.660Z,88.70
2017-12-11T16:50:32.939Z,88.50
2017-12-11T16:53:01.218Z,88.50
2017-12-11T16:55:27.645Z,88.60
2017-12-11T16:57:56.812Z,89.00
2017-12-11T17:00:23.294Z,88.80
2017-12-11T17:02:50.338Z,89.30
2017-12-11T17:05:16.650Z,89.50
2017-12-11T17:07:42.986Z,89.20
2017-12-11T17:10:09.257Z,89.00
2017-12-11T17:12:35.525Z,88.60
2017-12-11T17:15:01.818Z,88.80
2017-12-11T17:17:28.842Z,89.60
2017-12-11T17:19:55.143Z,89.20
2017-12-11T17:22:22.194Z,89.80
2017-12-11T17:24:48.486Z,89.10
2017-12-11T17:27:15.603Z,89.80
2017-12-11T17:29:41.910Z,89.00
2017-12-11T17:32:08.210Z,89.10
2017-12-11T17:34:34.486Z,88.80
2017-12-11T17:37:00.799Z,88.70
2017-12-11T17:39:27.091Z,88.60
2017-12-11T17:41:54.165Z,88.60
2017-12-11T17:44:20.512Z,88.30
2017-12-11T17:46:46.793Z,88.10
2017-12-11T17:49:13.098Z,87.20
2017-12-11T17:51:39.400Z,87.10
2017-12-11T17:54:06.400Z,87.50
2017-12-11T17:56:32.694Z,86.40
2017-12-11T17:58:58.989Z,86.60
2017-12-11T18:01:25.330Z,86.20
2017-12-11T18:03:51.607Z,85.30
2017-12-11T18:06:17.911Z,84.30
2017-12-11T18:08:44.992Z,84.70
2017-12-11T18:11:11.285Z,84.60
2017-12-11T18:13:37.574Z,83.80
2017-12-11T18:16:04.596Z,83.30
2017-12-11T18:18:31.207Z,82.40
2017-12-11T18:20:57.689Z,82.30
2017-12-11T18:23:24.029Z,82.10
2017-12-11T18:25:50.565Z,82.20
2017-12-11T18:28:17.059Z,82.00
2017-12-11T18:30:43.534Z,82.00
2017-12-11T18:33:09.909Z,81.80
2017-12-11T18:35:37.138Z,82.50
2017-12-11T18:38:03.586Z,81.90
2017-12-11T18:40:29.933Z,81.70
2017-12-11T18:42:56.500Z,81.20
2017-12-11T18:45:22.780Z,81.70
2017-12-11T18:47:49.064Z,81.60
2017-12-11T18:50:16.092Z,81.80
2017-12-11T18:52:43.094Z,82.00
2017-12-11T18:55:09.375Z,81.00
2017-12-11T18:57:35.716Z,81.70
2017-12-11T19:00:02.020Z,81.40
2017-12-11T19:02:28.352Z,80.80
2017-12-11T19:04:54.647Z,81.30
2017-12-11T19:07:20.986Z,81.30
2017-12-11T19:09:47.282Z,80.90
2017-12-11T19:12:13.627Z,80.60
2017-12-11T19:14:39.894Z,80.90
2017-12-11T19:17:06.183Z,80.80
2017-12-11T19:19:33.232Z,81.50
2017-12-11T19:21:59.544Z,81.20
2017-12-11T19:24:25.874Z,80.60
2017-12-11T19:26:52.211Z,80.80
2017-12-11T19:29:18.474Z,80.70
2017-12-11T19:31:45.594Z,79.50
2017-12-11T19:34:11.899Z,80.10
2017-12-11T19:36:38.235Z,80.00
2017-12-11T19:39:04.519Z,79.40
2017-12-11T19:41:30.828Z,80.00
2017-12-11T19:43:57.103Z,79.70
2017-12-11T19:46:24.131Z,80.10
2017-12-11T19:48:51.175Z,79.20
2017-12-11T19:51:17.561Z,79.60
2017-12-11T19:53:43.859Z,78.70
2017-12-11T19:56:10.165Z,79.60
2017-12-11T19:58:36.438Z,79.10
2017-12-11T20:01:02.736Z,78.90
2017-12-11T20:03:29.770Z,78.10
2017-12-11T20:05:56.780Z,78.30
2017-12-11T20:08:23.040Z,78.00
2017-12-11T20:10:49.399Z,77.60
2017-12-11T20:13:15.688Z,77.00
2017-12-11T20:15:42.019Z,76.70
2017-12-11T20:18:08.326Z,76.80
2017-12-11T20:20:34.600Z,76.80
2017-12-11T20:23:01.616Z,76.90
2017-12-11T20:25:28.128Z,76.50
2017-12-11T20:27:54.401Z,77.60
2017-12-11T20:30:20.724Z,75.80
2017-12-11T20:32:47.006Z,76.00
2017-12-11T20:35:13.270Z,75.40
2017-12-11T20:37:39.544Z,75.50
2017-12-11T20:40:05.837Z,75.20
2017-12-11T20:42:32.134Z,75.10
2017-12-11T20:44:58.423Z,75.50
2017-12-11T20:47:24.728Z,76.10
2017-12-11T20:49:50.995Z,75.50
2017-12-11T20:52:18.018Z,76.30
2017-12-11T20:54:44.362Z,76.00
2017-12-11T20:57:10.677Z,75.20
2017-12-11T20:59:36.944Z,75.50
2017-12-11T21:02:03.322Z,75.90
2017-12-11T21:04:29.634Z,75.90
2017-12-11T21:06:55.916Z,75.10
2017-12-11T21:09:22.206Z,75.50
2017-12-11T21:11:48.480Z,75.80
2017-12-11T21:14:14.760Z,76.10
2017-12-11T21:16:41.095Z,76.40
2017-12-11T21:19:08.102Z,77.10
2017-12-11T21:21:34.422Z,75.90
2017-12-11T21:24:00.848Z,76.40
2017-12-11T21:26:27.896Z,76.90
2017-12-11T21:28:54.948Z,77.70
2017-12-11T21:31:21.320Z,76.60
2017-12-11T21:33:47.630Z,77.70
2017-12-11T21:36:13.970Z,78.50
2017-12-11T21:38:41.021Z,81.80
2017-12-11T21:41:07.311Z,81.30
2017-12-11T21:43:34.411Z,83.50
2017-12-11T21:46:00.731Z,82.60
2017-12-11T21:48:27.029Z,83.60
2017-12-11T21:50:53.349Z,85.50
2017-12-11T21:53:19.690Z,85.80
2017-12-11T21:55:46.131Z,87.20
2017-12-11T21:58:13.222Z,88.00
2017-12-11T22:00:39.544Z,87.20
2017-12-11T22:03:05.835Z,88.50
2017-12-11T22:05:32.111Z,87.80
2017-12-11T22:07:59.283Z,87.60
2017-12-11T22:10:26.291Z,86.50
2017-12-11T22:12:53.373Z,85.90
2017-12-11T22:15:19.700Z,85.10
2017-12-11T22:17:46.031Z,84.10
2017-12-11T22:20:12.332Z,83.20
2017-12-11T22:22:38.666Z,83.60
2017-12-11T22:25:05.059Z,82.50
2017-12-11T22:27:31.344Z,81.60
2017-12-11T22:29:57.679Z,81.40
2017-12-11T22:32:23.983Z,81.30
2017-12-11T22:34:50.290Z,81.10
2017-12-11T22:37:16.644Z,81.30
2017-12-11T22:39:42.950Z,80.60
2017-12-11T22:42:09.244Z,80.80
2017-12-11T22:44:35.582Z,80.20
2017-12-11T22:47:01.875Z,80.70
2017-12-11T22:49:28.158Z,81.00
2017-12-11T22:51:54.504Z,81.00
2017-12-11T22:54:20.806Z,81.10
2017-12-11T22:56:47.116Z,80.80
2017-12-11T22:59:14.159Z,81.00
2017-12-11T23:01:40.486Z,80.70
2017-12-11T23:04:06.782Z,80.30
2017-12-11T23:06:33.085Z,80.90
2017-12-11T23:09:00.105Z,81.20
2017-12-11T23:11:26.479Z,80.40
2017-12-11T23:13:52.776Z,81.40
2017-12-11T23:16:19.055Z,81.30
2017-12-11T23:18:45.368Z,80.50
2017-12-11T23:21:11.696Z,80.60
2017-12-11T23:23:38.724Z,80.80
2017-12-11T23:26:05.765Z,80.20
2017-12-11T23:28:32.812Z,79.10
2017-12-11T23:30:59.110Z,78.90
2017-12-11T23:33:26.132Z,78.50
2017-12-11T23:35:52.422Z,78.00
2017-12-11T23:38:18.702Z,77.30
2017-12-11T23:40:45.017Z,77.20
2017-12-11T23:43:11.338Z,77.40
2017-12-11T23:45:37.640Z,77.00
2017-12-11T23:48:03.928Z,76.40
2017-12-11T23:50:31.013Z,78.30
2017-12-11T23:52:57.308Z,78.70
2017-12-11T23:55:23.576Z,76.50
2017-12-11T23:57:49.901Z,75.80
